createdAt,value
2022-08-02T00:00:34.349Z,27.49
2022-08-02T00:03:00.976Z,27.45
2022-08-02T00:05:27.636Z,27.45
2022-08-02T00:07:55.623Z,27.48
2022-08-02T00:10:22.352Z,27.45
2022-08-02T00:12:48.959Z,27.45
2022-08-02T00:15:15.767Z,27.47
2022-08-02T00:17:43.581Z,27.51
2022-08-02T00:20:10.869Z,27.51
2022-08-02T00:22:37.668Z,27.54
2022-08-02T00:25:04.832Z,27.53
2022-08-02T00:27:31.593Z,27.53
2022-08-02T00:29:58.215Z,27.56
2022-08-02T00:32:24.982Z,27.52
2022-08-02T00:34:52.144Z,27.60
2022-08-02T00:37:18.780Z,27.57
2022-08-02T00:39:45.823Z,27.70
2022-08-02T00:42:15.742Z,27.84
2022-08-02T00:44:43.283Z,28.04
2022-08-02T00:47:10.097Z,28.17
2022-08-02T00:49:37.511Z,28.24
2022-08-02T00:52:04.774Z,28.25
2022-08-02T00:54:31.424Z,28.22
2022-08-02T00:56:58.107Z,28.22
2022-08-02T00:59:24.669Z,28.17
2022-08-02T01:01:56.176Z,28.19
2022-08-02T01:04:31.247Z,28.12
2022-08-02T01:07:00.039Z,28.34
2022-08-02T01:09:26.808Z,28.44
2022-08-02T01:11:53.579Z,28.48
2022-08-02T01:14:22.938Z,28.50
2022-08-02T01:17:21.880Z,28.44
2022-08-02T01:20:03.911Z,28.42
2022-08-02T01:23:01.085Z,28.44
2022-08-02T01:25:45.245Z,28.44
2022-08-02T01:28:43.550Z,28.49
2022-08-02T01:31:22.339Z,28.46
2022-08-02T01:34:13.655Z,28.43
2022-08-02T01:36:47.081Z,28.38
2022-08-02T01:39:27.349Z,28.30
2022-08-02T01:42:00.994Z,28.32
2022-08-02T01:44:31.943Z,28.28
2022-08-02T01:47:02.406Z,28.32
2022-08-02T01:49:32.470Z,28.34
2022-08-02T01:52:20.318Z,28.31
2022-08-02T01:55:18.616Z,28.26
2022-08-02T01:57:58.748Z,28.19
2022-08-02T02:00:28.974Z,28.11
2022-08-02T02:02:57.942Z,27.95
2022-08-02T02:05:32.313Z,27.74
2022-08-02T02:08:03.479Z,27.61
2022-08-02T02:10:33.224Z,27.51
2022-08-02T02:13:06.595Z,27.52
2022-08-02T02:15:35.162Z,27.46
2022-08-02T02:18:12.569Z,27.39
2022-08-02T02:20:41.424Z,27.36
2022-08-02T02:23:08.103Z,27.28
2022-08-02T02:25:41.645Z,27.16
2022-08-02T02:28:24.659Z,27.07
2022-08-02T02:30:55.303Z,26.97
2022-08-02T02:33:27.629Z,26.89
2022-08-02T02:35:58.129Z,26.83
2022-08-02T02:38:27.406Z,26.78
2022-08-02T02:40:56.483Z,26.69
2022-08-02T02:43:24.960Z,26.57
2022-08-02T02:45:53.464Z,26.50
2022-08-02T02:48:20.813Z,26.44
2022-08-02T02:50:48.606Z,26.29
2022-08-02T02:53:18.494Z,26.21
2022-08-02T02:56:01.899Z,26.07
2022-08-02T02:58:31.269Z,25.95
2022-08-02T03:01:16.811Z,25.93
2022-08-02T03:03:45.390Z,25.91
2022-08-02T03:06:15.597Z,25.90
2022-08-02T03:08:43.156Z,25.77
2022-08-02T03:11:11.158Z,25.72
2022-08-02T03:13:39.016Z,25.71
2022-08-02T03:16:06.275Z,25.68
2022-08-02T03:18:36.655Z,25.63
2022-08-02T03:21:14.128Z,25.55
2022-08-02T03:23:42.770Z,25.57
2022-08-02T03:26:10.131Z,25.48
2022-08-02T03:28:37.391Z,25.46
2022-08-02T03:31:04.424Z,25.42
2022-08-02T03:33:33.340Z,25.36
2022-08-02T03:36:10.695Z,25.34
2022-08-02T03:38:38.191Z,25.28
2022-08-02T03:41:06.313Z,25.29
2022-08-02T03:43:34.086Z,25.27
2022-08-02T03:46:03.534Z,25.25
2022-08-02T03:48:31.305Z,25.12
2022-08-02T03:51:02.221Z,25.08
2022-08-02T03:53:29.501Z,25.03
2022-08-02T03:55:56.198Z,24.92
2022-08-02T03:58:24.054Z,24.81
2022-08-02T04:00:52.937Z,24.85
2022-08-02T04:03:19.754Z,24.77
2022-08-02T04:06:03.186Z,24.71
2022-08-02T04:08:35.541Z,24.70
2022-08-02T04:11:22.727Z,24.62
2022-08-02T04:13:49.834Z,24.59
2022-08-02T04:16:22.549Z,24.55
2022-08-02T04:19:01.355Z,24.42
2022-08-02T04:21:51.755Z,24.34
2022-08-02T04:24:25.351Z,24.38
2022-08-02T04:29:40.242Z,24.29
2022-08-02T04:32:10.655Z,24.30
2022-08-02T04:34:37.469Z,24.27
2022-08-02T04:37:04.059Z,24.15
2022-08-02T04:39:30.841Z,24.21
2022-08-02T04:41:58.004Z,24.20
2022-08-02T04:44:25.130Z,24.15
2022-08-02T04:46:52.071Z,24.02
2022-08-02T04:49:18.902Z,24.01
2022-08-02T04:51:45.618Z,23.88
2022-08-02T04:54:12.960Z,23.93
2022-08-02T04:56:40.248Z,23.98
2022-08-02T04:59:07.745Z,24.10
2022-08-02T05:01:35.808Z,24.22
2022-08-02T05:04:03.246Z,24.35
2022-08-02T05:06:29.864Z,24.39
2022-08-02T05:08:56.523Z,24.50
2022-08-02T05:11:34.161Z,24.55
2022-08-02T05:14:01.662Z,24.61
2022-08-02T05:16:31.623Z,24.46
2022-08-02T05:19:00.189Z,24.08
2022-08-02T05:21:26.858Z,24.11
2022-08-02T05:23:53.668Z,23.60
2022-08-02T05:26:20.249Z,23.42
2022-08-02T05:28:46.885Z,23.34
2022-08-02T05:31:13.686Z,23.28
2022-08-02T05:33:41.009Z,23.32
2022-08-02T05:36:09.508Z,23.19
2022-08-02T05:38:37.626Z,23.29
2022-08-02T05:41:06.027Z,23.35
2022-08-02T05:43:33.465Z,23.27
2022-08-02T05:46:00.307Z,23.26
2022-08-02T05:48:31.702Z,23.36
2022-08-02T05:51:13.028Z,23.46
2022-08-02T05:53:51.681Z,23.54
2022-08-02T05:56:25.374Z,23.63
2022-08-02T05:59:42.292Z,23.68
2022-08-02T06:02:30.721Z,23.66
2022-08-02T06:05:21.096Z,23.68
2022-08-02T06:07:49.667Z,23.72
2022-08-02T06:10:21.678Z,23.69
2022-08-02T06:13:01.288Z,23.58
2022-08-02T06:15:28.507Z,23.47
2022-08-02T06:17:56.408Z,23.43
2022-08-02T06:20:24.176Z,23.37
2022-08-02T06:22:52.243Z,23.28
2022-08-02T06:25:50.476Z,23.30
2022-08-02T06:28:10.326Z,23.22
2022-08-02T06:30:38.991Z,22.79
2022-08-02T06:33:05.549Z,22.53
2022-08-02T06:35:40.657Z,22.64
2022-08-02T06:38:08.631Z,22.68
2022-08-02T06:41:00.548Z,22.72
2022-08-02T06:43:46.863Z,22.70
2022-08-02T06:47:10.098Z,22.70
2022-08-02T06:49:02.064Z,22.72
2022-08-02T06:51:28.806Z,22.74
2022-08-02T06:53:55.760Z,22.70
2022-08-02T06:56:22.377Z,22.73
2022-08-02T06:58:48.903Z,22.64
2022-08-02T07:01:15.537Z,22.65
2022-08-02T07:03:42.267Z,22.74
2022-08-02T07:06:09.551Z,22.60
2022-08-02T07:08:38.564Z,22.47
2022-08-02T07:11:09.384Z,22.48
2022-08-02T07:13:39.835Z,22.60
2022-08-02T07:16:07.502Z,22.39
2022-08-02T07:18:34.549Z,22.37
2022-08-02T07:21:01.259Z,22.41
2022-08-02T07:23:27.965Z,22.39
2022-08-02T07:26:02.762Z,22.35
2022-08-02T07:28:30.892Z,22.36
2022-08-02T07:30:57.549Z,22.57
2022-08-02T07:33:37.439Z,22.65
2022-08-02T07:36:07.480Z,22.53
2022-08-02T07:38:36.315Z,22.35
2022-08-02T07:41:04.644Z,22.25
2022-08-02T07:43:31.465Z,22.17
2022-08-02T07:46:00.674Z,22.18
2022-08-02T07:48:28.045Z,22.21
2022-08-02T07:50:54.713Z,22.25
2022-08-02T07:53:49.715Z,22.35
2022-08-02T07:56:08.004Z,22.57
2022-08-02T07:58:34.556Z,22.60
2022-08-02T08:01:01.257Z,22.62
2022-08-02T08:03:28.320Z,22.61
2022-08-02T08:05:54.878Z,22.60
2022-08-02T08:08:21.516Z,22.72
2022-08-02T08:10:48.083Z,22.80
2022-08-02T08:13:15.675Z,22.94
2022-08-02T08:15:50.042Z,23.07
2022-08-02T08:18:19.658Z,23.40
2022-08-02T08:20:46.279Z,23.67
2022-08-02T08:23:12.961Z,23.67
2022-08-02T08:25:41.459Z,24.03
2022-08-02T08:28:09.171Z,25.14
2022-08-02T08:30:35.947Z,26.84
2022-08-02T08:33:02.992Z,26.63
2022-08-02T08:35:44.340Z,27.92
2022-08-02T08:38:11.080Z,29.28
2022-08-02T08:40:37.954Z,29.80
2022-08-02T08:43:05.601Z,30.67
2022-08-02T08:45:32.389Z,30.96
2022-08-02T08:48:10.365Z,31.28
2022-08-02T08:50:42.399Z,31.49
2022-08-02T08:53:12.342Z,32.22
2022-08-02T08:55:40.798Z,32.84
2022-08-02T08:58:07.339Z,32.94
2022-08-02T09:00:35.883Z,33.03
2022-08-02T09:03:04.817Z,33.36
2022-08-02T09:05:31.739Z,33.02
2022-08-02T09:07:58.262Z,33.40
2022-08-02T09:10:45.314Z,33.42
2022-08-02T09:13:37.824Z,33.07
2022-08-02T09:16:14.484Z,33.66
2022-08-02T09:18:47.181Z,33.62
2022-08-02T09:21:16.101Z,33.83
2022-08-02T09:23:49.505Z,33.41
2022-08-02T09:26:21.409Z,33.89
2022-08-02T09:28:50.391Z,33.66
2022-08-02T09:31:21.850Z,33.65
2022-08-02T09:33:53.452Z,34.31
2022-08-02T09:36:20.651Z,35.00
2022-08-02T09:38:57.762Z,34.92
2022-08-02T09:41:30.157Z,34.87
2022-08-02T09:44:04.854Z,35.35
2022-08-02T09:46:41.314Z,35.38
2022-08-02T09:52:37.169Z,34.15
2022-08-02T09:55:11.607Z,34.84
2022-08-02T09:57:38.738Z,34.68
2022-08-02T10:00:14.316Z,35.11
2022-08-02T10:03:08.002Z,35.27
2022-08-02T10:05:55.593Z,35.09
2022-08-02T10:08:23.339Z,35.26
2022-08-02T10:11:00.579Z,35.14
2022-08-02T10:13:34.902Z,35.18
2022-08-02T10:16:03.830Z,35.44
2022-08-02T10:18:39.404Z,35.14
2022-08-02T10:21:14.362Z,34.84
2022-08-02T10:23:43.954Z,34.54
2022-08-02T10:26:15.015Z,34.74
2022-08-02T10:28:44.488Z,34.71
2022-08-02T10:31:14.561Z,34.81
2022-08-02T10:33:42.145Z,34.70
2022-08-02T10:36:14.567Z,34.55
2022-08-02T10:38:43.676Z,34.32
2022-08-02T10:41:42.904Z,34.24
2022-08-02T10:44:24.342Z,34.17
2022-08-02T10:46:53.411Z,34.16
2022-08-02T10:49:39.698Z,34.09
2022-08-02T10:52:08.007Z,33.65
2022-08-02T10:54:40.457Z,33.43
2022-08-02T10:57:21.275Z,33.21
2022-08-02T10:59:50.266Z,33.26
2022-08-02T11:02:35.119Z,33.28
2022-08-02T11:05:04.940Z,33.28
2022-08-02T11:07:35.415Z,32.91
2022-08-02T11:10:35.267Z,33.11
2022-08-02T11:13:12.274Z,33.05
2022-08-02T11:16:11.952Z,32.87
2022-08-02T11:24:41.018Z,32.69
2022-08-02T11:27:21.716Z,32.63
2022-08-02T11:29:49.732Z,32.66
2022-08-02T11:32:30.502Z,32.81
2022-08-02T11:34:58.950Z,32.83
2022-08-02T11:37:36.632Z,33.05
2022-08-02T11:40:19.766Z,32.97
2022-08-02T11:42:51.143Z,32.67
2022-08-02T11:45:21.348Z,32.11
2022-08-02T11:47:52.038Z,32.62
2022-08-02T11:50:29.919Z,32.66
2022-08-02T11:52:57.455Z,32.96
2022-08-02T11:55:32.296Z,32.98
2022-08-02T11:58:05.646Z,32.56
2022-08-02T12:00:32.869Z,32.88
2022-08-02T12:02:59.791Z,32.82
2022-08-02T12:08:17.082Z,32.96
2022-08-02T12:10:50.016Z,33.02
2022-08-02T12:13:16.565Z,33.06
2022-08-02T12:15:46.235Z,32.91
2022-08-02T12:18:36.885Z,32.86
2022-08-02T12:21:04.704Z,32.61
2022-08-02T12:23:31.124Z,32.78
2022-08-02T12:26:06.551Z,32.46
2022-08-02T12:28:41.134Z,32.04
2022-08-02T12:31:13.351Z,32.19
2022-08-02T12:33:53.126Z,32.19
2022-08-02T12:36:24.130Z,31.62
2022-08-02T12:38:59.382Z,31.56
2022-08-02T12:41:31.048Z,31.82
2022-08-02T12:43:58.997Z,31.42
2022-08-02T12:46:25.742Z,31.77
2022-08-02T12:49:16.683Z,31.91
2022-08-02T12:51:51.297Z,31.33
2022-08-02T12:54:38.465Z,31.43
2022-08-02T12:57:17.909Z,31.31
2022-08-02T12:59:53.685Z,31.62
2022-08-02T13:02:21.469Z,31.85
2022-08-02T13:04:49.965Z,32.06
2022-08-02T13:07:18.193Z,31.64
2022-08-02T13:09:52.111Z,31.64
2022-08-02T13:12:29.114Z,31.97
2022-08-02T13:14:55.648Z,31.82
2022-08-02T13:17:22.200Z,32.05
2022-08-02T13:19:51.882Z,32.27
2022-08-02T13:22:19.808Z,31.88
2022-08-02T13:24:56.546Z,31.72
2022-08-02T13:27:24.587Z,31.50
2022-08-02T13:29:52.146Z,31.56
2022-08-02T13:32:19.055Z,31.52
2022-08-02T13:34:45.984Z,31.80
2022-08-02T13:37:12.597Z,31.86
2022-08-02T13:39:39.296Z,31.76
2022-08-02T13:42:06.948Z,31.57
2022-08-02T13:44:34.347Z,31.25
2022-08-02T13:47:04.266Z,31.78
2022-08-02T13:49:51.058Z,32.02
2022-08-02T13:52:17.696Z,32.31
2022-08-02T13:54:44.365Z,32.04
2022-08-02T13:57:10.965Z,31.60
2022-08-02T13:59:55.955Z,32.01
2022-08-02T14:02:24.578Z,32.09
2022-08-02T14:04:51.141Z,32.13
2022-08-02T14:07:18.530Z,31.88
2022-08-02T14:09:45.127Z,32.30
2022-08-02T14:12:13.127Z,31.96
2022-08-02T14:14:40.035Z,31.70
2022-08-02T14:17:06.689Z,32.22
2022-08-02T14:19:33.297Z,32.44
2022-08-02T14:22:21.429Z,32.55
2022-08-02T14:24:46.488Z,32.35
2022-08-02T14:27:13.497Z,32.21
2022-08-02T14:29:40.092Z,32.58
2022-08-02T14:32:06.982Z,32.80
2022-08-02T14:34:44.195Z,32.90
2022-08-02T14:37:11.296Z,32.93
2022-08-02T14:39:43.269Z,32.90
2022-08-02T14:42:25.465Z,32.61
2022-08-02T14:44:52.085Z,32.57
2022-08-02T14:47:18.641Z,32.49
2022-08-02T14:49:49.851Z,32.46
2022-08-02T14:52:17.045Z,32.47
2022-08-02T14:54:43.761Z,32.54
2022-08-02T14:57:13.457Z,32.39
2022-08-02T14:59:42.198Z,32.56
2022-08-02T15:02:10.094Z,32.61
2022-08-02T15:04:42.617Z,32.46
2022-08-02T15:07:10.201Z,32.23
2022-08-02T15:09:39.727Z,32.33
2022-08-02T15:12:07.449Z,32.06
2022-08-02T15:14:34.044Z,32.05
2022-08-02T15:17:00.590Z,32.08
2022-08-02T15:19:56.306Z,32.21
2022-08-02T15:22:16.707Z,32.08
2022-08-02T15:24:46.580Z,32.13
2022-08-02T15:27:14.731Z,32.41
2022-08-02T15:29:45.830Z,32.42
2022-08-02T15:32:14.160Z,32.26
2022-08-02T15:34:41.068Z,32.03
2022-08-02T15:37:07.713Z,32.25
2022-08-02T15:39:34.340Z,32.36
2022-08-02T15:42:00.862Z,32.34
2022-08-02T15:44:27.422Z,32.49
2022-08-02T15:46:54.439Z,32.25
2022-08-02T15:49:23.494Z,32.16
2022-08-02T15:51:51.127Z,31.92
2022-08-02T15:54:18.117Z,31.81
2022-08-02T15:57:04.891Z,31.69
2022-08-02T15:59:31.540Z,31.68
2022-08-02T16:01:58.271Z,31.66
2022-08-02T16:04:24.901Z,31.79
2022-08-02T16:06:51.487Z,31.82
2022-08-02T16:09:18.059Z,31.97
2022-08-02T16:11:44.687Z,31.93
2022-08-02T16:14:11.341Z,31.99
2022-08-02T16:16:39.087Z,32.02
2022-08-02T16:19:46.350Z,31.99
2022-08-02T16:21:53.695Z,32.13
2022-08-02T16:24:21.385Z,32.07
2022-08-02T16:26:47.941Z,31.95
2022-08-02T16:29:14.753Z,31.82
2022-08-02T16:31:47.463Z,31.77
2022-08-02T16:34:13.996Z,31.66
2022-08-02T16:36:40.670Z,31.62
2022-08-02T16:40:02.790Z,31.54
2022-08-02T16:41:57.230Z,31.56
2022-08-02T16:47:13.525Z,31.60
2022-08-02T16:50:04.548Z,31.59
2022-08-02T16:52:28.003Z,31.61
2022-08-02T16:54:55.058Z,31.58
2022-08-02T16:57:21.604Z,31.49
2022-08-02T16:59:57.856Z,31.46
2022-08-02T17:02:25.679Z,31.36
2022-08-02T17:04:52.385Z,31.31
2022-08-02T17:07:19.206Z,31.42
2022-08-02T17:10:09.108Z,31.30
2022-08-02T17:12:37.330Z,31.16
2022-08-02T17:16:01.462Z,31.17
2022-08-02T17:17:52.104Z,31.27
2022-08-02T17:20:20.565Z,31.20
2022-08-02T17:22:47.467Z,31.13
2022-08-02T17:25:17.461Z,31.16
2022-08-02T17:27:44.495Z,31.15
2022-08-02T17:30:12.859Z,31.09
2022-08-02T17:32:40.106Z,31.13
2022-08-02T17:35:12.797Z,31.11
2022-08-02T17:37:42.297Z,31.04
2022-08-02T17:40:09.610Z,31.01
2022-08-02T17:42:36.420Z,30.92
2022-08-02T17:45:16.499Z,30.65
2022-08-02T17:47:43.668Z,30.72
2022-08-02T17:50:30.303Z,30.72
2022-08-02T17:52:57.268Z,30.64
2022-08-02T17:55:23.977Z,30.57
2022-08-02T17:57:57.669Z,30.51
2022-08-02T18:00:31.076Z,30.42
2022-08-02T18:02:57.613Z,30.32
2022-08-02T18:05:38.874Z,30.29
2022-08-02T18:08:07.576Z,30.26
2022-08-02T18:10:34.410Z,30.21
2022-08-02T18:13:01.141Z,30.15
2022-08-02T18:15:30.350Z,30.13
2022-08-02T18:17:59.348Z,30.10
2022-08-02T18:20:26.060Z,30.02
2022-08-02T18:22:55.514Z,30.02
2022-08-02T18:25:36.944Z,29.92
2022-08-02T18:28:08.999Z,29.87
2022-08-02T18:30:35.622Z,29.83
2022-08-02T18:33:59.086Z,29.78
2022-08-02T18:35:49.329Z,29.73
2022-08-02T18:38:16.433Z,29.69
2022-08-02T18:40:44.006Z,29.63
2022-08-02T18:43:18.347Z,29.51
2022-08-02T18:46:07.391Z,29.50
2022-08-02T18:48:32.036Z,29.49
2022-08-02T18:50:58.611Z,29.47
2022-08-02T18:53:28.295Z,29.43
2022-08-02T18:56:10.561Z,29.33
2022-08-02T18:58:48.182Z,29.17
2022-08-02T19:01:21.953Z,29.08
2022-08-02T19:04:04.385Z,28.91
2022-08-02T19:06:32.019Z,28.68
2022-08-02T19:08:59.683Z,28.52
2022-08-02T19:11:37.048Z,28.37
2022-08-02T19:14:03.943Z,28.21
2022-08-02T19:16:37.788Z,28.21
2022-08-02T19:19:06.233Z,28.20
2022-08-02T19:22:18.871Z,28.09
2022-08-02T19:24:19.399Z,27.87
2022-08-02T19:26:51.800Z,27.71
2022-08-02T19:29:43.376Z,27.50
2022-08-02T19:34:53.831Z,27.22
2022-08-02T19:37:20.685Z,27.16
2022-08-02T19:42:41.702Z,27.17
2022-08-02T19:45:20.555Z,27.11
2022-08-02T19:48:14.472Z,27.11
2022-08-02T19:50:44.029Z,27.05
2022-08-02T19:53:17.184Z,27.01
2022-08-02T19:55:58.699Z,27.01
2022-08-02T19:58:28.493Z,26.91
2022-08-02T20:00:55.053Z,26.86
2022-08-02T20:03:39.899Z,26.80
2022-08-02T20:06:08.500Z,26.80
2022-08-02T20:08:37.504Z,26.83
2022-08-02T20:11:04.317Z,26.86
2022-08-02T20:13:46.859Z,26.89
2022-08-02T20:16:28.090Z,26.85
2022-08-02T20:19:01.261Z,26.82
2022-08-02T20:21:36.179Z,26.69
2022-08-02T20:24:10.025Z,26.59
2022-08-02T20:26:39.654Z,26.42
2022-08-02T20:29:13.977Z,26.24
2022-08-02T20:31:40.619Z,26.11
2022-08-02T20:34:07.332Z,26.07
2022-08-02T20:36:33.920Z,25.97
2022-08-02T20:39:00.447Z,25.88
2022-08-02T20:41:37.048Z,25.82
2022-08-02T20:44:15.357Z,25.78
2022-08-02T20:46:43.957Z,25.70
2022-08-02T20:49:18.912Z,25.65
2022-08-02T20:51:51.726Z,25.62
2022-08-02T20:54:20.747Z,25.57
2022-08-02T20:56:48.064Z,25.56
2022-08-02T20:59:17.349Z,25.50
2022-08-02T21:01:56.766Z,25.36
2022-08-02T21:04:24.177Z,25.25
2022-08-02T21:06:51.484Z,25.18
2022-08-02T21:09:18.092Z,25.13
2022-08-02T21:11:50.969Z,25.13
2022-08-02T21:14:18.810Z,25.07
2022-08-02T21:16:45.395Z,25.08
2022-08-02T21:19:12.325Z,25.02
2022-08-02T21:21:38.918Z,24.91
2022-08-02T21:24:05.778Z,24.96
2022-08-02T21:26:33.053Z,24.92
2022-08-02T21:29:03.726Z,24.90
2022-08-02T21:31:49.284Z,24.88
2022-08-02T21:34:27.218Z,24.95
2022-08-02T21:36:54.977Z,24.94
2022-08-02T21:39:22.190Z,24.92
2022-08-02T21:41:49.478Z,24.90
2022-08-02T21:44:21.608Z,24.84
2022-08-02T21:46:51.868Z,24.80
2022-08-02T21:49:20.549Z,24.80
2022-08-02T21:51:49.245Z,24.78
2022-08-02T21:54:21.355Z,24.74
2022-08-02T21:56:50.196Z,24.77
2022-08-02T21:59:26.331Z,24.79
2022-08-02T22:01:57.564Z,24.80
2022-08-02T22:04:26.005Z,24.82
2022-08-02T22:06:52.838Z,24.81
2022-08-02T22:09:44.175Z,24.82
2022-08-02T22:12:09.965Z,24.85
2022-08-02T22:14:39.418Z,24.87
2022-08-02T22:17:13.699Z,24.90
2022-08-02T22:19:54.068Z,24.92
2022-08-02T22:22:28.416Z,24.84
2022-08-02T22:24:55.599Z,24.86
2022-08-02T22:27:23.425Z,24.79
2022-08-02T22:30:10.576Z,24.72
2022-08-02T22:33:15.355Z,24.80
2022-08-02T22:35:42.398Z,24.77
2022-08-02T22:38:16.325Z,24.75
2022-08-02T22:40:48.323Z,24.58
2022-08-02T22:43:22.884Z,24.53
2022-08-02T22:45:50.114Z,24.43
2022-08-02T22:48:16.751Z,24.38
2022-08-02T22:50:43.407Z,24.34
2022-08-02T22:53:10.063Z,24.25
2022-08-02T22:55:41.529Z,24.16
2022-08-02T22:58:08.725Z,24.17
2022-08-02T22:58:49.179Z,31.52
2022-08-02T22:58:58.524Z,27.37
2022-08-02T22:59:05.602Z,27.15
2022-08-02T23:00:35.256Z,24.09
2022-08-02T23:03:01.793Z,24.13
2022-08-02T23:05:30.181Z,24.12
2022-08-02T23:08:01.780Z,24.12
2022-08-02T23:10:28.496Z,24.08
2022-08-02T23:12:58.897Z,24.00
2022-08-02T23:15:26.640Z,23.94
2022-08-02T23:18:12.461Z,23.79
2022-08-02T23:20:39.013Z,23.63
2022-08-02T23:23:11.865Z,23.62
2022-08-02T23:25:38.630Z,23.62
2022-08-02T23:28:05.349Z,23.53
2022-08-02T23:30:31.896Z,23.43
2022-08-02T23:32:58.482Z,23.47
2022-08-02T23:35:25.287Z,23.46
2022-08-02T23:38:00.456Z,23.47
2022-08-02T23:40:40.388Z,23.44
2022-08-02T23:43:14.230Z,23.42
2022-08-02T23:45:45.783Z,23.43
2022-08-02T23:48:12.365Z,23.45
2022-08-02T23:50:39.098Z,23.55
2022-08-02T23:53:05.659Z,23.62
2022-08-02T23:55:32.232Z,23.66
2022-08-02T23:57:58.821Z,23.67
